createdAt,value
2019-05-06T00:01:34.130Z,10.52
2019-05-06T00:04:00.996Z,11.32
2019-05-06T00:06:28.695Z,8.80
2019-05-06T00:08:56.767Z,9.38
2019-05-06T00:11:25.254Z,11.00
2019-05-06T00:13:54.260Z,10.82
2019-05-06T00:16:21.112Z,9.75
2019-05-06T00:18:49.790Z,13.70
2019-05-06T00:21:17.944Z,10.52
2019-05-06T00:23:49.795Z,10.00
2019-05-06T00:26:29.968Z,8.32
2019-05-06T00:29:04.585Z,8.80
2019-05-06T00:31:34.380Z,8.32
2019-05-06T00:34:00.927Z,7.07
2019-05-06T00:36:29.174Z,15.98
2019-05-06T00:38:58.887Z,9.80
2019-05-06T00:41:35.936Z,8.77
2019-05-06T00:44:00.681Z,9.43
2019-05-06T00:46:28.726Z,7.65
2019-05-06T00:48:56.621Z,9.40
2019-05-06T00:51:24.810Z,10.10
2019-05-06T00:53:56.540Z,13.30
2019-05-06T00:56:24.632Z,7.90
2019-05-06T00:58:54.458Z,11.32
2019-05-06T01:01:27.085Z,10.32
2019-05-06T01:03:49.737Z,11.63
2019-05-06T01:06:17.962Z,13.77
2019-05-06T01:08:46.105Z,12.27
2019-05-06T01:11:38.898Z,8.77
2019-05-06T01:14:10.489Z,8.23
2019-05-06T01:16:38.756Z,11.63
2019-05-06T01:19:07.169Z,12.45
2019-05-06T01:21:35.036Z,8.88
2019-05-06T01:24:03.967Z,9.27
2019-05-06T01:26:31.273Z,8.82
2019-05-06T01:28:59.360Z,10.35
2019-05-06T01:31:39.817Z,12.85
2019-05-06T01:33:56.046Z,9.98
2019-05-06T01:36:25.029Z,10.23
2019-05-06T01:38:59.666Z,8.18
2019-05-06T01:41:50.907Z,10.18
2019-05-06T01:44:18.199Z,12.80
2019-05-06T01:46:47.922Z,10.10
2019-05-06T01:49:16.567Z,12.32
2019-05-06T01:51:46.292Z,10.95
2019-05-06T01:54:16.102Z,10.13
2019-05-06T01:56:44.557Z,9.73
2019-05-06T01:59:14.007Z,11.05
2019-05-06T02:01:53.498Z,10.70
2019-05-06T02:04:08.322Z,9.13
2019-05-06T02:06:36.142Z,12.32
2019-05-06T02:09:04.688Z,12.88
2019-05-06T02:11:33.732Z,10.02
2019-05-06T02:14:00.061Z,8.63
2019-05-06T02:16:27.573Z,10.75
2019-05-06T02:18:55.718Z,9.30
2019-05-06T02:21:40.869Z,9.07
2019-05-06T02:24:10.871Z,8.30
2019-05-06T02:26:38.950Z,10.18
2019-05-06T02:29:07.554Z,9.77
2019-05-06T02:32:00.803Z,9.80
2019-05-06T02:34:36.496Z,20.77
2019-05-06T02:37:08.318Z,15.27
2019-05-06T02:39:36.538Z,18.00
2019-05-06T02:42:05.505Z,15.68
2019-05-06T02:44:33.830Z,17.15
2019-05-06T02:47:13.586Z,12.05
2019-05-06T02:49:44.302Z,20.42
2019-05-06T02:52:13.834Z,16.87
2019-05-06T02:54:39.246Z,9.50
2019-05-06T02:57:07.455Z,11.80
2019-05-06T02:59:35.270Z,12.27
2019-05-06T03:02:03.729Z,13.85
2019-05-06T03:04:33.150Z,15.43
2019-05-06T03:06:59.213Z,14.07
2019-05-06T03:09:27.265Z,14.05
2019-05-06T03:11:55.356Z,14.85
2019-05-06T03:14:23.950Z,15.90
2019-05-06T03:16:53.865Z,11.18
2019-05-06T03:19:19.932Z,18.05
2019-05-06T03:21:58.590Z,17.67
2019-05-06T03:24:33.305Z,13.13
2019-05-06T03:27:04.146Z,13.38
2019-05-06T03:29:29.350Z,16.27
2019-05-06T03:31:57.613Z,14.70
2019-05-06T03:34:49.491Z,12.88
2019-05-06T03:36:56.292Z,12.05
2019-05-06T03:39:23.243Z,16.52
2019-05-06T03:41:48.980Z,13.57
2019-05-06T03:44:17.160Z,13.98
2019-05-06T03:47:13.684Z,11.60
2019-05-06T03:49:42.934Z,13.35
2019-05-06T03:52:13.503Z,11.93
2019-05-06T03:54:45.051Z,17.37
2019-05-06T03:57:08.120Z,13.73
2019-05-06T03:59:36.203Z,11.95
2019-05-06T04:02:05.269Z,20.15
2019-05-06T04:04:33.341Z,15.73
2019-05-06T04:07:03.338Z,17.48
2019-05-06T04:09:28.995Z,13.07
2019-05-06T04:11:56.784Z,13.62
2019-05-06T04:14:24.641Z,16.25
2019-05-06T04:16:56.684Z,15.13
2019-05-06T04:19:28.286Z,13.98
2019-05-06T04:22:03.525Z,11.93
2019-05-06T04:24:42.950Z,16.52
2019-05-06T04:27:24.909Z,13.43
2019-05-06T04:29:54.428Z,16.17
2019-05-06T04:32:23.354Z,11.70
2019-05-06T04:34:49.248Z,14.85
2019-05-06T04:37:17.096Z,16.48
2019-05-06T04:39:45.198Z,16.17
2019-05-06T04:42:13.858Z,13.15
2019-05-06T04:44:43.826Z,13.82
2019-05-06T04:47:14.884Z,15.13
2019-05-06T04:49:44.297Z,12.60
2019-05-06T04:52:13.930Z,16.12
2019-05-06T04:54:43.960Z,12.32
2019-05-06T04:57:08.936Z,12.85
2019-05-06T04:59:37.335Z,13.27
2019-05-06T05:02:05.496Z,11.30
2019-05-06T05:04:36.657Z,10.32
2019-05-06T05:07:03.343Z,14.00
2019-05-06T05:09:29.501Z,16.80
2019-05-06T05:12:02.534Z,11.10
2019-05-06T05:14:51.960Z,9.70
2019-05-06T05:17:28.655Z,12.85
2019-05-06T05:19:56.521Z,11.77
2019-05-06T05:22:24.707Z,11.00
2019-05-06T05:24:52.881Z,11.77
2019-05-06T05:27:21.960Z,11.70
2019-05-06T05:29:49.115Z,10.88
2019-05-06T05:32:17.166Z,11.95
2019-05-06T05:34:45.325Z,13.73
2019-05-06T05:37:13.456Z,12.05
2019-05-06T05:39:42.618Z,10.75
2019-05-06T05:42:16.334Z,10.10
2019-05-06T05:44:44.316Z,13.80
2019-05-06T05:47:12.428Z,11.95
2019-05-06T05:50:02.761Z,10.38
2019-05-06T05:52:28.209Z,13.98
2019-05-06T05:54:56.560Z,12.75
2019-05-06T05:57:24.751Z,12.37
2019-05-06T05:59:52.959Z,10.27
2019-05-06T06:02:22.416Z,9.52
2019-05-06T06:04:54.848Z,11.73
2019-05-06T06:07:16.621Z,16.77
2019-05-06T06:09:52.456Z,14.27
2019-05-06T06:12:19.624Z,10.45
2019-05-06T06:14:56.411Z,12.43
2019-05-06T06:17:32.854Z,12.45
2019-05-06T06:20:02.617Z,10.43
2019-05-06T06:22:30.348Z,13.18
2019-05-06T06:24:58.606Z,12.75
2019-05-06T06:27:26.748Z,12.75
2019-05-06T06:29:54.896Z,11.35
2019-05-06T06:32:25.180Z,13.10
2019-05-06T06:35:14.410Z,13.00
2019-05-06T06:37:52.959Z,12.82
2019-05-06T06:40:22.751Z,13.90
2019-05-06T06:42:52.766Z,12.68
2019-05-06T06:45:22.917Z,11.52
2019-05-06T06:47:48.728Z,10.65
2019-05-06T06:50:16.767Z,11.10
2019-05-06T06:52:45.529Z,14.85
2019-05-06T06:55:13.807Z,13.35
2019-05-06T06:58:02.689Z,9.68
2019-05-06T07:00:42.523Z,12.90
2019-05-06T07:03:12.568Z,11.52
2019-05-06T07:05:44.758Z,11.38
2019-05-06T07:08:12.899Z,10.00
2019-05-06T07:10:44.580Z,7.35
2019-05-06T07:13:15.960Z,8.38
2019-05-06T07:15:44.202Z,11.25
2019-05-06T07:18:13.479Z,9.82
2019-05-06T07:20:59.200Z,10.27
2019-05-06T07:23:28.689Z,8.27
2019-05-06T07:25:56.873Z,10.60
2019-05-06T07:28:24.938Z,10.63
2019-05-06T07:30:53.021Z,7.90
2019-05-06T07:33:22.945Z,13.13
2019-05-06T07:35:49.290Z,9.43
2019-05-06T07:38:17.975Z,9.68
2019-05-06T07:40:47.969Z,13.13
2019-05-06T07:43:47.665Z,10.25
2019-05-06T07:46:23.575Z,10.05
2019-05-06T07:48:51.776Z,11.02
2019-05-06T07:51:18.001Z,12.65
2019-05-06T07:53:46.785Z,11.23
2019-05-06T07:56:14.893Z,13.90
2019-05-06T07:58:43.571Z,13.55
2019-05-06T08:01:13.280Z,11.00
2019-05-06T08:03:39.012Z,13.27
2019-05-06T08:06:07.173Z,13.38
2019-05-06T08:08:35.024Z,12.10
2019-05-06T08:11:03.114Z,11.80
2019-05-06T08:13:32.310Z,10.70
2019-05-06T08:15:59.357Z,14.87
2019-05-06T08:18:27.434Z,10.88
2019-05-06T08:20:55.527Z,9.50
2019-05-06T08:23:28.811Z,11.93
2019-05-06T08:26:09.092Z,10.00
2019-05-06T08:28:37.399Z,14.48
2019-05-06T08:30:53.626Z,11.73
2019-05-06T08:33:22.035Z,13.00
2019-05-06T08:35:50.159Z,11.68
2019-05-06T08:38:18.221Z,10.07
2019-05-06T08:40:46.523Z,10.77
2019-05-06T08:43:14.622Z,8.80
2019-05-06T08:45:42.992Z,9.07
2019-05-06T08:48:13.064Z,10.35
2019-05-06T08:50:48.952Z,8.98
2019-05-06T08:53:24.030Z,8.43
2019-05-06T08:55:48.976Z,9.20
2019-05-06T08:58:17.545Z,8.32
2019-05-06T09:00:57.389Z,9.35
2019-05-06T09:03:22.314Z,9.35
2019-05-06T09:05:55.908Z,7.72
2019-05-06T09:08:24.493Z,7.62
2019-05-06T09:10:52.644Z,6.68
2019-05-06T09:13:23.014Z,11.18
2019-05-06T09:15:48.946Z,6.28
2019-05-06T09:18:17.895Z,8.90
2019-05-06T09:20:45.965Z,9.57
2019-05-06T09:23:14.036Z,6.85
2019-05-06T09:25:42.593Z,6.75
2019-05-06T09:28:14.789Z,7.05
2019-05-06T09:30:46.550Z,6.87
2019-05-06T09:33:15.317Z,8.18
2019-05-06T09:35:43.878Z,7.87
2019-05-06T09:38:12.739Z,12.77
2019-05-06T09:40:40.272Z,5.82
2019-05-06T09:43:08.436Z,7.30
2019-05-06T09:45:36.525Z,8.20
2019-05-06T09:48:12.792Z,6.12
2019-05-06T09:50:46.396Z,5.22
2019-05-06T09:53:15.787Z,8.07
2019-05-06T09:55:48.362Z,5.62
2019-05-06T09:58:17.457Z,5.47
2019-05-06T10:00:47.050Z,7.50
2019-05-06T10:03:15.658Z,5.78
2019-05-06T10:05:44.214Z,6.40
2019-05-06T10:08:12.554Z,4.85
2019-05-06T10:10:55.267Z,4.97
2019-05-06T10:13:08.240Z,6.30
2019-05-06T10:15:35.984Z,4.60
2019-05-06T10:18:13.135Z,7.25
2019-05-06T10:20:39.661Z,5.37
2019-05-06T10:23:07.878Z,5.82
2019-05-06T10:25:36.438Z,6.72
2019-05-06T10:28:05.568Z,7.35
2019-05-06T10:30:33.646Z,8.82
2019-05-06T10:33:02.112Z,8.10
2019-05-06T10:35:32.348Z,8.60
2019-05-06T10:38:12.364Z,8.07
2019-05-06T10:40:58.971Z,9.23
2019-05-06T10:43:14.788Z,10.40
2019-05-06T10:45:42.852Z,11.48
2019-05-06T10:48:12.769Z,8.68
2019-05-06T10:50:42.654Z,9.07
2019-05-06T10:53:24.383Z,8.75
2019-05-06T10:55:53.820Z,10.25
2019-05-06T10:58:22.511Z,10.98
2019-05-06T11:00:52.884Z,9.30
2019-05-06T11:03:22.640Z,8.85
2019-05-06T11:05:49.561Z,12.15
2019-05-06T11:08:17.429Z,10.27
2019-05-06T11:10:45.802Z,11.23
2019-05-06T11:13:13.341Z,11.60
2019-05-06T11:15:43.462Z,13.57
2019-05-06T11:18:09.331Z,12.10
2019-05-06T11:20:37.216Z,18.58
2019-05-06T11:23:05.447Z,17.73
2019-05-06T11:25:33.548Z,16.60
2019-05-06T11:28:03.003Z,15.68
2019-05-06T11:30:47.984Z,12.27
2019-05-06T11:33:23.807Z,15.13
2019-05-06T11:36:04.497Z,18.83
2019-05-06T11:38:32.567Z,22.13
2019-05-06T11:41:01.184Z,20.27
2019-05-06T11:43:29.377Z,16.55
2019-05-06T11:45:57.521Z,14.07
2019-05-06T11:48:25.581Z,14.93
2019-05-06T11:50:55.660Z,15.82
2019-05-06T11:53:23.774Z,15.07
2019-05-06T11:55:54.463Z,22.17
2019-05-06T11:58:37.742Z,17.58
2019-05-06T12:01:08.672Z,17.62
2019-05-06T12:03:37.094Z,14.77
2019-05-06T12:06:05.325Z,14.85
2019-05-06T12:08:33.370Z,17.42
2019-05-06T12:11:02.951Z,13.35
2019-05-06T12:13:29.518Z,15.75
2019-05-06T12:15:57.301Z,16.87
2019-05-06T12:18:24.736Z,15.52
2019-05-06T12:20:53.525Z,14.85
2019-05-06T12:23:22.414Z,16.90
2019-05-06T12:25:49.859Z,18.23
2019-05-06T12:28:18.026Z,14.55
2019-05-06T12:30:45.831Z,16.02
2019-05-06T12:33:33.202Z,16.58
2019-05-06T12:36:02.568Z,13.77
2019-05-06T12:38:30.935Z,12.55
2019-05-06T12:40:59.837Z,11.27
2019-05-06T12:43:56.242Z,12.27
2019-05-06T12:46:43.382Z,13.20
2019-05-06T12:49:12.771Z,10.35
2019-05-06T12:51:39.541Z,10.30
2019-05-06T12:54:07.613Z,11.98
2019-05-06T12:56:35.746Z,11.12
2019-05-06T12:59:03.556Z,14.05
2019-05-06T13:01:34.069Z,8.20
2019-05-06T13:03:59.752Z,9.32
2019-05-06T13:06:28.204Z,13.07
2019-05-06T13:09:01.432Z,10.75
2019-05-06T13:11:24.396Z,9.52
2019-05-06T13:14:00.091Z,9.95
2019-05-06T13:16:22.850Z,8.07
2019-05-06T13:18:52.523Z,9.20
2019-05-06T13:21:18.206Z,10.82
2019-05-06T13:23:54.770Z,8.25
2019-05-06T13:26:23.043Z,7.12
2019-05-06T13:28:54.329Z,11.20
2019-05-06T13:31:25.465Z,8.50
2019-05-06T13:33:54.569Z,13.25
2019-05-06T13:36:22.585Z,10.25
2019-05-06T13:38:49.173Z,8.25
2019-05-06T13:41:17.719Z,12.27
2019-05-06T13:43:49.163Z,11.00
2019-05-06T13:46:23.621Z,10.73
2019-05-06T13:49:09.081Z,12.37
2019-05-06T13:51:37.479Z,8.65
2019-05-06T13:54:06.071Z,9.27
2019-05-06T13:56:34.244Z,11.82
2019-05-06T13:59:05.051Z,13.93
2019-05-06T14:01:32.195Z,9.70
2019-05-06T14:03:59.967Z,9.82
2019-05-06T14:06:28.106Z,9.65
2019-05-06T14:08:57.184Z,9.05
2019-05-06T14:11:24.992Z,10.75
2019-05-06T14:13:53.094Z,10.82
2019-05-06T14:16:24.525Z,10.65
2019-05-06T14:18:48.755Z,13.30
2019-05-06T14:21:16.979Z,6.72
2019-05-06T14:23:45.062Z,11.57
2019-05-06T14:26:27.284Z,8.57
2019-05-06T14:29:17.231Z,11.60
2019-05-06T14:31:48.485Z,9.38
2019-05-06T14:34:16.582Z,6.97
2019-05-06T14:36:45.103Z,7.62
2019-05-06T14:39:19.414Z,6.15
2019-05-06T14:41:49.925Z,6.75
2019-05-06T14:44:17.981Z,8.85
2019-05-06T14:46:56.690Z,6.15
2019-05-06T14:49:24.745Z,7.82
2019-05-06T14:51:53.681Z,8.10
2019-05-06T14:54:22.153Z,10.85
2019-05-06T14:56:54.913Z,8.55
2019-05-06T14:59:23.534Z,8.10
2019-05-06T15:01:53.659Z,12.45
2019-05-06T15:04:19.141Z,11.65
2019-05-06T15:06:46.568Z,10.07
2019-05-06T15:09:15.485Z,15.13
2019-05-06T15:11:43.734Z,11.60
2019-05-06T15:14:13.065Z,14.05
2019-05-06T15:16:42.096Z,10.82
2019-05-06T15:19:08.071Z,11.43
2019-05-06T15:21:38.485Z,10.85
2019-05-06T15:24:04.416Z,11.32
2019-05-06T15:26:33.351Z,12.02
2019-05-06T15:28:59.727Z,13.43
2019-05-06T15:31:34.852Z,10.57
2019-05-06T15:34:03.318Z,15.93
2019-05-06T15:36:36.137Z,17.45
2019-05-06T15:39:03.970Z,13.43
2019-05-06T15:41:32.353Z,11.38
2019-05-06T15:43:59.834Z,15.40
2019-05-06T15:46:27.938Z,13.20
2019-05-06T15:48:56.065Z,12.88
2019-05-06T15:51:35.428Z,14.13
2019-05-06T15:54:04.695Z,9.63
2019-05-06T15:56:33.284Z,7.35
2019-05-06T15:59:02.705Z,9.35
2019-05-06T16:01:29.049Z,9.85
2019-05-06T16:03:57.184Z,9.82
2019-05-06T16:06:25.386Z,12.32
2019-05-06T16:08:53.245Z,11.15
2019-05-06T16:11:22.358Z,11.48
2019-05-06T16:13:53.301Z,14.60
2019-05-06T16:16:19.316Z,12.27
2019-05-06T16:18:47.347Z,14.40
2019-05-06T16:21:16.167Z,10.15
2019-05-06T16:23:47.628Z,10.13
2019-05-06T16:26:15.793Z,9.88
2019-05-06T16:28:44.999Z,12.43
2019-05-06T16:31:12.979Z,11.02
2019-05-06T16:33:42.857Z,8.25
2019-05-06T16:36:08.491Z,12.60
2019-05-06T16:38:35.952Z,9.98
2019-05-06T16:41:12.789Z,7.43
2019-05-06T16:43:34.318Z,12.05
2019-05-06T16:46:00.243Z,9.93
2019-05-06T16:48:28.325Z,10.75
2019-05-06T16:50:56.457Z,10.15
2019-05-06T16:53:24.625Z,10.55
2019-05-06T16:56:13.178Z,8.43
2019-05-06T16:58:45.071Z,9.20
2019-05-06T17:01:14.960Z,12.13
2019-05-06T17:03:47.575Z,7.05
2019-05-06T17:06:18.903Z,10.05
2019-05-06T17:08:47.010Z,7.80
2019-05-06T17:11:27.026Z,6.20
2019-05-06T17:13:44.526Z,7.40
2019-05-06T17:16:10.911Z,5.70
2019-05-06T17:18:39.497Z,5.68
2019-05-06T17:21:07.558Z,8.93
2019-05-06T17:23:35.620Z,6.47
2019-05-06T17:26:03.997Z,8.55
2019-05-06T17:28:36.098Z,4.87
2019-05-06T17:31:19.011Z,6.90
2019-05-06T17:33:47.155Z,8.40
2019-05-06T17:36:15.052Z,10.20
2019-05-06T17:38:45.799Z,9.52
2019-05-06T17:41:13.961Z,6.60
2019-05-06T17:43:44.090Z,8.07
2019-05-06T17:46:12.480Z,8.77
2019-05-06T17:48:48.998Z,6.53
2019-05-06T17:51:19.182Z,8.45
2019-05-06T17:53:52.095Z,7.47
2019-05-06T17:56:17.781Z,6.60
2019-05-06T17:58:46.232Z,7.30
2019-05-06T18:01:14.302Z,8.75
2019-05-06T18:03:42.165Z,6.65
2019-05-06T18:06:13.973Z,6.68
2019-05-06T18:08:38.721Z,5.68
2019-05-06T18:11:06.771Z,7.53
2019-05-06T18:13:35.129Z,10.50
2019-05-06T18:16:03.704Z,6.12
2019-05-06T18:18:32.125Z,5.10
2019-05-06T18:21:02.457Z,4.05
2019-05-06T18:23:28.585Z,5.32
2019-05-06T18:25:56.637Z,6.55
2019-05-06T18:28:24.762Z,6.53
2019-05-06T18:30:52.908Z,5.82
2019-05-06T18:33:22.552Z,5.93
2019-05-06T18:35:49.045Z,7.45
2019-05-06T18:38:17.088Z,5.22
2019-05-06T18:40:45.281Z,6.43
2019-05-06T18:43:13.152Z,6.35
2019-05-06T18:45:41.901Z,7.82
2019-05-06T18:48:09.271Z,5.60
2019-05-06T18:50:37.664Z,6.60
2019-05-06T18:53:05.750Z,8.15
2019-05-06T18:55:33.789Z,5.28
2019-05-06T18:58:02.271Z,5.53
2019-05-06T19:00:31.890Z,5.15
2019-05-06T19:02:57.919Z,3.78
2019-05-06T19:05:32.974Z,4.00
2019-05-06T19:08:02.536Z,9.40
2019-05-06T19:10:29.770Z,4.95
2019-05-06T19:12:57.935Z,5.10
2019-05-06T19:15:26.064Z,4.00
2019-05-06T19:17:53.940Z,5.45
2019-05-06T19:20:24.499Z,3.65
2019-05-06T19:22:53.367Z,9.43
2019-05-06T19:25:18.959Z,4.62
2019-05-06T19:27:47.074Z,5.37
2019-05-06T19:30:15.723Z,3.97
2019-05-06T19:32:45.472Z,4.35
2019-05-06T19:35:13.221Z,5.37
2019-05-06T19:37:39.434Z,3.40
2019-05-06T19:40:07.581Z,4.47
2019-05-06T19:42:46.214Z,7.40
2019-05-06T19:45:03.515Z,6.60
2019-05-06T19:47:31.939Z,4.97
2019-05-06T19:49:59.811Z,4.32
2019-05-06T19:52:27.949Z,7.00
2019-05-06T19:54:55.759Z,6.43
2019-05-06T19:57:23.989Z,5.78
2019-05-06T19:59:52.223Z,7.00
2019-05-06T20:02:22.613Z,7.57
2019-05-06T20:04:50.436Z,7.97
2019-05-06T20:07:32.957Z,6.28
2019-05-06T20:10:18.224Z,8.63
2019-05-06T20:12:59.508Z,7.93
2019-05-06T20:15:37.224Z,7.20
2019-05-06T20:18:05.522Z,7.25
2019-05-06T20:20:34.988Z,7.05
2019-05-06T20:23:02.805Z,6.22
2019-05-06T20:25:30.501Z,8.57
2019-05-06T20:27:58.724Z,5.97
2019-05-06T20:30:26.269Z,8.73
2019-05-06T20:32:53.711Z,11.57
2019-05-06T20:35:22.366Z,8.75
2019-05-06T20:37:49.822Z,5.40
2019-05-06T20:40:17.980Z,7.90
2019-05-06T20:42:46.105Z,6.28
2019-05-06T20:45:14.679Z,10.25
2019-05-06T20:47:43.013Z,6.72
2019-05-06T20:50:13.246Z,5.50
2019-05-06T20:52:42.362Z,7.40
2019-05-06T20:55:12.487Z,7.40
2019-05-06T20:57:36.705Z,9.50
2019-05-06T21:00:07.344Z,7.28
2019-05-06T21:02:33.151Z,7.68
2019-05-06T21:05:02.172Z,8.88
2019-05-06T21:07:29.303Z,5.28
2019-05-06T21:09:57.047Z,7.25
2019-05-06T21:12:25.143Z,9.43
2019-05-06T21:14:53.051Z,7.78
2019-05-06T21:17:22.860Z,8.90
2019-05-06T21:19:49.330Z,8.52
2019-05-06T21:22:17.511Z,8.40
2019-05-06T21:24:46.494Z,6.12
2019-05-06T21:27:14.584Z,9.05
2019-05-06T21:29:42.625Z,9.13
2019-05-06T21:32:10.702Z,5.35
2019-05-06T21:34:38.685Z,7.37
2019-05-06T21:37:06.813Z,5.35
2019-05-06T21:39:34.927Z,6.72
2019-05-06T21:42:02.715Z,6.35
2019-05-06T21:44:32.423Z,8.70
2019-05-06T21:46:58.717Z,7.47
2019-05-06T21:49:26.494Z,8.65
2019-05-06T21:51:54.755Z,7.65
2019-05-06T21:54:23.244Z,5.93
2019-05-06T21:56:53.047Z,6.53
2019-05-06T21:59:19.290Z,6.65
2019-05-06T22:01:47.446Z,5.28
2019-05-06T22:04:15.629Z,9.80
2019-05-06T22:06:45.589Z,6.85
2019-05-06T22:09:12.658Z,7.03
2019-05-06T22:11:42.383Z,6.90
2019-05-06T22:14:09.007Z,37.92
2019-05-06T22:16:37.115Z,65.90
2019-05-06T22:19:05.702Z,66.72
2019-05-06T22:21:34.500Z,45.30
2019-05-06T22:24:04.766Z,42.80
2019-05-06T22:26:32.609Z,29.23
2019-05-06T22:29:02.018Z,26.98
2019-05-06T22:31:28.627Z,12.07
2019-05-06T22:33:56.761Z,14.43
2019-05-06T22:36:25.295Z,18.00
2019-05-06T22:38:53.464Z,17.02
2019-05-06T22:41:24.867Z,15.10
2019-05-06T22:43:49.740Z,11.95
2019-05-06T22:46:18.395Z,15.18
2019-05-06T22:48:46.236Z,15.20
2019-05-06T22:51:14.624Z,14.02
2019-05-06T22:53:42.742Z,14.70
2019-05-06T22:56:12.785Z,12.05
2019-05-06T22:58:42.759Z,12.85
2019-05-06T23:01:32.521Z,14.98
2019-05-06T23:03:59.391Z,15.27
2019-05-06T23:06:27.558Z,18.12
2019-05-06T23:08:55.487Z,14.98
2019-05-06T23:11:23.263Z,15.82
2019-05-06T23:13:53.023Z,22.27
2019-05-06T23:16:19.604Z,19.95
2019-05-06T23:18:47.756Z,23.38
2019-05-06T23:21:16.330Z,20.88
2019-05-06T23:23:44.140Z,18.40
2019-05-06T23:26:19.414Z,22.42
2019-05-06T23:28:47.994Z,19.77
2019-05-06T23:31:16.109Z,15.45
2019-05-06T23:33:44.106Z,27.00
2019-05-06T23:36:12.183Z,42.53
2019-05-06T23:38:58.061Z,34.03
2019-05-06T23:41:44.165Z,22.62
2019-05-06T23:44:44.588Z,16.67
2019-05-06T23:47:16.855Z,11.70
2019-05-06T23:50:03.548Z,11.73
2019-05-06T23:52:48.643Z,9.20
2019-05-06T23:55:34.704Z,11.30
2019-05-06T23:58:01.976Z,12.35
